Newport News, VA

8:31 AM EST on March 04, 2015 (GMT -0500)
Northampton | Change Station
CLOSE
Current Station
Personal Weather Station
Location: Hampton, VA
Elevation: 23 ft
Nearby Weather Stations
Active Advisory: Special Statement Active Notice: Public Information Statement

Elev 23 ft 37.05 °N, 76.42 °W | Updated 1 minute ago

Fog
Fog
48.2 °F
Feels Like 47 °F
N
3.8
Wind Variable Wind from West
Gusts 3.8 mph

Today
High -- | Low -- °F
--% Chance of Precip.
Yesterday
High -- | Low -- °F
Precip. -- in
6:33 AM 6:02 PM
Waxing Gibbous, 99% visible
Pressure 29.96 in
Visibility 0.5 miles
Clouds Overcast 200 ft
Windchill 47 °F
Dew Point -6 °F
Humidity 10%
Rainfall 0.09 in
Snow Depth Not available.
UV 0 out of 12
Pollen 5.70 out of 12
Air Quality Not available.
Flu Activity Not available.
METAR KPHF 041254Z 24010KT 1/2SM FG OVC002 10/08 A2996 RMK AO2 SLP146 T01000083

More Conditions Fewer Conditions

Pressure 29.96 in
Visibility 0.5 miles
Clouds Overcast 200 ft
Windchill 47 °F
Dew Point -6 °F
Humidity 10%
Rainfall 0.09 in
Snow Depth Not available.
UV 0 out of 12
Pollen 5.70 out of 12
Air Quality Not available.
Flu Activity Not available.
METAR KPHF 041254Z 24010KT 1/2SM FG OVC002 10/08 A2996 RMK AO2 SLP146 T01000083

More Conditions Fewer Conditions

10-Day Weather Forecast

Almanac

Astronomy

Mar. 04, 2015 Rise Set
Actual Time
Civil Twilight
Nautical Twilight
Astronomical Twilight
Moon
Length of Visible Light
Length of Day
Tomorrow will be .
, % of the Moon is Illuminated

Today's Extremes

State Highs State Lows

Community

WunderPhotos

Upload Photos

1,802,452 photos uploaded!

WunderBlogs® & News

Nearby

Air Quality

  Air Quality AQ Index Pollutant
Not available.

Snow Depth

Station Depth Elevation

Earthquake Activity

City Distance Mag. Time & Date
Minimum magnitude displayed is 2.5.

Coastal Water Temperatures

Place Temperature

Nearby Weather Stations

Special Statement
Statement as of 5:12 AM EST on March 04, 2015

... Areas of fog across southeast Virginia and northeast North
Carolina this morning...

Areas of fog... locally dense... will persist across southeast
Virginia and northeast North Carolina early this morning.
Visibility will locally be restricted to 1/2 mile or less.
Visibility should begin to improve after 9 am.

Motorists should be alert for sudden changes in visibility due to
the areas of dense fog. Drive at reduced speeds and use low beam
headlights only.